Jucurutu, Brazil
Current Conditions -  °F | °C
As of 4:00 PM on Thursday 23 Oct 2014 (Local Time) from SBMS Reporting Station
Few Clouds Few Clouds  
Wind Chill: 90°   Ceiling: Unl
Heat Index: 96°   Visibility: 6mi
Dew Point: 72°   Wind: 17mph
Humidity: 55%   Direction: 20°NNE
Pressure: 29.8"   Gusts: NA
Location:  6.03°S, 37.02°W
Report Text: SBMS 231900Z 02015KT 9999 FEW030 32/22 Q1009
Loading
Personal Weather Stations






























Interactive Weather Map
Tropical Storm Tracking
New forecast layout! Learn more

10-Day Weather Forecast

Advertisements
Track Severe Weather on mobile